Adams, Wisconsin
Current Conditions -  °F | °C
As of 4:58 PM on Thursday 23 Oct 2014 (Local Time) from KVOK Reporting Station
Overcast Overcast  
Wind Chill: 48°   Ceiling: 600
Heat Index: 48°   Visibility: 7mi
Dew Point: 48°   Wind: 3mph
Humidity: 100%   Direction: 230°SW
Pressure: 30.03"   Gusts: NA
Location:  43.96°N, 89.82°W
Report Text: KVOK 232158Z 23003KT 7SM OVC006 09/09 A3003 RMK AO2A SLP177
Loading
Personal Weather Stations






























Interactive Weather Map
Tropical Storm Tracking
New forecast layout! Learn more

10-Day Weather Forecast

Advertisements
Track Severe Weather on mobile